sensor_id;sensor_type;location;lat;lon;timestamp;P1;durP1;ratioP1;P2;durP2;ratioP2
18568;SDS011;14780;48.316;-1.050;2024-01-10T00:00:22;7.55;;;5.20;;
18568;SDS011;14780;48.316;-1.050;2024-01-10T00:03:07;6.55;;;5.00;;
18568;SDS011;14780;48.316;-1.050;2024-01-10T00:05:51;6.63;;;5.18;;
18568;SDS011;14780;48.316;-1.050;2024-01-10T00:08:36;6.90;;;5.10;;
18568;SDS011;14780;48.316;-1.050;2024-01-10T00:11:21;6.90;;;5.00;;
18568;SDS011;14780;48.316;-1.050;2024-01-10T00:14:06;6.50;;;4.85;;
18568;SDS011;14780;48.316;-1.050;2024-01-10T00:16:51;6.90;;;5.23;;
18568;SDS011;14780;48.316;-1.050;2024-01-10T00:19:35;6.85;;;5.13;;
18568;SDS011;14780;48.316;-1.050;2024-01-10T00:22:20;7.68;;;4.80;;
18568;SDS011;14780;48.316;-1.050;2024-01-10T00:25:04;6.40;;;4.93;;
18568;SDS011;14780;48.316;-1.050;2024-01-10T00:27:50;6.35;;;5.10;;
18568;SDS011;14780;48.316;-1.050;2024-01-10T00:30:34;7.10;;;4.75;;
18568;SDS011;14780;48.316;-1.050;2024-01-10T00:33:19;7.40;;;4.85;;
18568;SDS011;14780;48.316;-1.050;2024-01-10T00:36:03;6.15;;;4.70;;
18568;SDS011;14780;48.316;-1.050;2024-01-10T00:38:48;7.50;;;4.97;;
18568;SDS011;14780;48.316;-1.050;2024-01-10T00:41:33;6.40;;;4.75;;
18568;SDS011;14780;48.316;-1.050;2024-01-10T00:44:18;6.57;;;4.80;;
18568;SDS011;14780;48.316;-1.050;2024-01-10T00:47:02;6.10;;;4.97;;
18568;SDS011;14780;48.316;-1.050;2024-01-10T00:49:47;6.40;;;4.60;;
18568;SDS011;14780;48.316;-1.050;2024-01-10T00:52:32;6.60;;;4.63;;
18568;SDS011;14780;48.316;-1.050;2024-01-10T00:55:16;6.22;;;4.35;;
18568;SDS011;14780;48.316;-1.050;2024-01-10T00:58:01;5.83;;;4.30;;
18568;SDS011;14780;48.316;-1.050;2024-01-10T01:00:45;5.82;;;4.40;;
18568;SDS011;14780;48.316;-1.050;2024-01-10T01:03:30;6.07;;;4.50;;
18568;SDS011;14780;48.316;-1.050;2024-01-10T01:06:14;5.97;;;4.43;;
18568;SDS011;14780;48.316;-1.050;2024-01-10T01:08:59;6.32;;;4.82;;
18568;SDS011;14780;48.316;-1.050;2024-01-10T01:11:44;5.82;;;4.55;;
18568;SDS011;14780;48.316;-1.050;2024-01-10T01:14:29;6.28;;;4.40;;
18568;SDS011;14780;48.316;-1.050;2024-01-10T01:17:13;5.63;;;4.47;;
18568;SDS011;14780;48.316;-1.050;2024-01-10T01:19:58;5.90;;;4.50;;
18568;SDS011;14780;48.316;-1.050;2024-01-10T01:22:43;6.10;;;4.40;;
18568;SDS011;14780;48.316;-1.050;2024-01-10T01:25:28;6.43;;;4.53;;
18568;SDS011;14780;48.316;-1.050;2024-01-10T01:28:12;5.97;;;4.80;;
18568;SDS011;14780;48.316;-1.050;2024-01-10T01:30:57;5.53;;;4.18;;
18568;SDS011;14780;48.316;-1.050;2024-01-10T01:33:42;5.93;;;4.50;;
18568;SDS011;14780;48.316;-1.050;2024-01-10T01:36:27;6.22;;;4.63;;
18568;SDS011;14780;48.316;-1.050;2024-01-10T01:39:11;5.68;;;4.28;;
18568;SDS011;14780;48.316;-1.050;2024-01-10T01:41:57;6.00;;;4.45;;
18568;SDS011;14780;48.316;-1.050;2024-01-10T01:44:42;6.70;;;4.40;;
18568;SDS011;14780;48.316;-1.050;2024-01-10T01:47:26;6.35;;;4.72;;
18568;SDS011;14780;48.316;-1.050;2024-01-10T01:50:11;5.82;;;4.30;;
18568;SDS011;14780;48.316;-1.050;2024-01-10T01:52:56;6.03;;;4.63;;
18568;SDS011;14780;48.316;-1.050;2024-01-10T01:55:44;6.10;;;4.45;;
18568;SDS011;14780;48.316;-1.050;2024-01-10T01:58:30;5.90;;;4.55;;
18568;SDS011;14780;48.316;-1.050;2024-01-10T02:01:14;5.68;;;4.28;;
18568;SDS011;14780;48.316;-1.050;2024-01-10T02:04:03;6.18;;;4.35;;
18568;SDS011;14780;48.316;-1.050;2024-01-10T02:06:48;5.50;;;4.43;;
18568;SDS011;14780;48.316;-1.050;2024-01-10T02:09:32;6.97;;;4.70;;
18568;SDS011;14780;48.316;-1.050;2024-01-10T02:12:17;5.55;;;4.32;;
18568;SDS011;14780;48.316;-1.050;2024-01-10T02:15:01;6.03;;;4.30;;
18568;SDS011;14780;48.316;-1.050;2024-01-10T02:17:47;7.13;;;4.63;;
18568;SDS011;14780;48.316;-1.050;2024-01-10T02:20:31;7.07;;;4.55;;
18568;SDS011;14780;48.316;-1.050;2024-01-10T02:23:16;6.57;;;4.70;;
18568;SDS011;14780;48.316;-1.050;2024-01-10T02:26:01;5.80;;;4.40;;
18568;SDS011;14780;48.316;-1.050;2024-01-10T02:28:47;6.80;;;4.47;;
18568;SDS011;14780;48.316;-1.050;2024-01-10T02:31:32;6.22;;;4.45;;
18568;SDS011;14780;48.316;-1.050;2024-01-10T02:34:17;5.45;;;4.47;;
18568;SDS011;14780;48.316;-1.050;2024-01-10T02:37:01;5.70;;;4.20;;
18568;SDS011;14780;48.316;-1.050;2024-01-10T02:39:46;6.13;;;4.45;;
18568;SDS011;14780;48.316;-1.050;2024-01-10T02:42:31;6.13;;;4.70;;
18568;SDS011;14780;48.316;-1.050;2024-01-10T02:45:18;6.47;;;4.70;;
18568;SDS011;14780;48.316;-1.050;2024-01-10T02:48:03;5.65;;;4.22;;
18568;SDS011;14780;48.316;-1.050;2024-01-10T02:50:48;6.00;;;4.15;;
18568;SDS011;14780;48.316;-1.050;2024-01-10T02:53:33;6.10;;;4.57;;
18568;SDS011;14780;48.316;-1.050;2024-01-10T02:56:18;6.05;;;4.30;;
18568;SDS011;14780;48.316;-1.050;2024-01-10T02:59:02;6.00;;;4.63;;
18568;SDS011;14780;48.316;-1.050;2024-01-10T03:01:47;5.67;;;4.40;;
18568;SDS011;14780;48.316;-1.050;2024-01-10T03:04:32;6.07;;;4.40;;
18568;SDS011;14780;48.316;-1.050;2024-01-10T03:07:16;6.47;;;4.70;;
18568;SDS011;14780;48.316;-1.050;2024-01-10T03:10:01;6.47;;;4.63;;
18568;SDS011;14780;48.316;-1.050;2024-01-10T03:12:47;5.78;;;4.57;;
18568;SDS011;14780;48.316;-1.050;2024-01-10T03:15:32;6.50;;;4.68;;
18568;SDS011;14780;48.316;-1.050;2024-01-10T03:18:16;6.78;;;4.70;;
18568;SDS011;14780;48.316;-1.050;2024-01-10T03:21:01;6.93;;;4.60;;
18568;SDS011;14780;48.316;-1.050;2024-01-10T03:23:46;5.78;;;4.53;;
18568;SDS011;14780;48.316;-1.050;2024-01-10T03:26:31;6.32;;;4.65;;
18568;SDS011;14780;48.316;-1.050;2024-01-10T03:29:15;6.85;;;4.70;;
18568;SDS011;14780;48.316;-1.050;2024-01-10T03:32:00;6.00;;;4.68;;
18568;SDS011;14780;48.316;-1.050;2024-01-10T03:34:45;5.95;;;4.47;;
18568;SDS011;14780;48.316;-1.050;2024-01-10T03:37:30;6.93;;;4.75;;
18568;SDS011;14780;48.316;-1.050;2024-01-10T03:40:14;6.22;;;4.40;;
18568;SDS011;14780;48.316;-1.050;2024-01-10T03:42:59;5.85;;;4.60;;
18568;SDS011;14780;48.316;-1.050;2024-01-10T03:45:44;6.38;;;4.40;;
18568;SDS011;14780;48.316;-1.050;2024-01-10T03:48:29;7.60;;;4.60;;
18568;SDS011;14780;48.316;-1.050;2024-01-10T03:51:17;5.80;;;4.53;;
18568;SDS011;14780;48.316;-1.050;2024-01-10T03:54:02;5.38;;;4.32;;
18568;SDS011;14780;48.316;-1.050;2024-01-10T03:56:47;5.75;;;4.53;;
18568;SDS011;14780;48.316;-1.050;2024-01-10T03:59:32;5.78;;;4.30;;
18568;SDS011;14780;48.316;-1.050;2024-01-10T04:02:16;6.47;;;4.60;;
18568;SDS011;14780;48.316;-1.050;2024-01-10T04:05:01;6.20;;;4.32;;
18568;SDS011;14780;48.316;-1.050;2024-01-10T04:07:45;6.03;;;4.80;;
18568;SDS011;14780;48.316;-1.050;2024-01-10T04:10:31;6.10;;;4.67;;
18568;SDS011;14780;48.316;-1.050;2024-01-10T04:13:15;6.63;;;4.50;;
18568;SDS011;14780;48.316;-1.050;2024-01-10T04:16:00;6.35;;;4.50;;
18568;SDS011;14780;48.316;-1.050;2024-01-10T04:18:44;6.00;;;4.63;;
18568;SDS011;14780;48.316;-1.050;2024-01-10T04:21:29;5.65;;;4.60;;
18568;SDS011;14780;48.316;-1.050;2024-01-10T04:24:14;7.03;;;4.78;;
18568;SDS011;14780;48.316;-1.050;2024-01-10T04:26:59;5.65;;;4.45;;
18568;SDS011;14780;48.316;-1.050;2024-01-10T04:29:44;5.63;;;4.40;;
18568;SDS011;14780;48.316;-1.050;2024-01-10T04:32:29;6.20;;;4.82;;
18568;SDS011;14780;48.316;-1.050;2024-01-10T04:35:14;6.97;;;4.83;;
18568;SDS011;14780;48.316;-1.050;2024-01-10T04:37:58;6.53;;;4.85;;
18568;SDS011;14780;48.316;-1.050;2024-01-10T04:40:43;6.85;;;4.95;;
18568;SDS011;14780;48.316;-1.050;2024-01-10T04:43:27;6.82;;;4.53;;
18568;SDS011;14780;48.316;-1.050;2024-01-10T04:46:12;6.10;;;4.57;;
18568;SDS011;14780;48.316;-1.050;2024-01-10T04:48:57;7.00;;;4.78;;
18568;SDS011;14780;48.316;-1.050;2024-01-10T04:51:41;6.78;;;4.68;;
18568;SDS011;14780;48.316;-1.050;2024-01-10T04:54:26;6.65;;;4.90;;
18568;SDS011;14780;48.316;-1.050;2024-01-10T04:57:11;5.97;;;4.40;;
18568;SDS011;14780;48.316;-1.050;2024-01-10T04:59:55;5.68;;;4.50;;
18568;SDS011;14780;48.316;-1.050;2024-01-10T05:02:40;5.97;;;4.70;;
18568;SDS011;14780;48.316;-1.050;2024-01-10T05:05:25;6.82;;;4.80;;
18568;SDS011;14780;48.316;-1.050;2024-01-10T05:08:09;6.78;;;4.70;;
18568;SDS011;14780;48.316;-1.050;2024-01-10T05:10:54;6.80;;;5.10;;
18568;SDS011;14780;48.316;-1.050;2024-01-10T05:13:38;5.50;;;4.43;;
18568;SDS011;14780;48.316;-1.050;2024-01-10T05:16:23;6.70;;;4.82;;
18568;SDS011;14780;48.316;-1.050;2024-01-10T05:19:08;6.30;;;4.40;;
18568;SDS011;14780;48.316;-1.050;2024-01-10T05:21:53;6.25;;;4.63;;
18568;SDS011;14780;48.316;-1.050;2024-01-10T05:24:38;6.13;;;4.73;;
18568;SDS011;14780;48.316;-1.050;2024-01-10T05:27:22;5.65;;;4.43;;
18568;SDS011;14780;48.316;-1.050;2024-01-10T05:30:07;9.02;;;5.00;;
18568;SDS011;14780;48.316;-1.050;2024-01-10T05:32:52;6.53;;;4.50;;
18568;SDS011;14780;48.316;-1.050;2024-01-10T05:35:39;6.18;;;4.40;;
18568;SDS011;14780;48.316;-1.050;2024-01-10T05:38:24;9.77;;;4.90;;
18568;SDS011;14780;48.316;-1.050;2024-01-10T05:41:09;5.97;;;4.53;;
18568;SDS011;14780;48.316;-1.050;2024-01-10T05:43:54;6.88;;;4.47;;
18568;SDS011;14780;48.316;-1.050;2024-01-10T05:46:38;6.78;;;4.70;;
18568;SDS011;14780;48.316;-1.050;2024-01-10T05:49:23;6.20;;;4.47;;
18568;SDS011;14780;48.316;-1.050;2024-01-10T05:52:08;7.13;;;4.72;;
18568;SDS011;14780;48.316;-1.050;2024-01-10T05:54:53;6.00;;;4.50;;
18568;SDS011;14780;48.316;-1.050;2024-01-10T05:57:38;7.18;;;4.90;;
18568;SDS011;14780;48.316;-1.050;2024-01-10T06:00:23;6.03;;;4.50;;
18568;SDS011;14780;48.316;-1.050;2024-01-10T06:03:08;5.75;;;4.38;;
18568;SDS011;14780;48.316;-1.050;2024-01-10T06:05:52;6.03;;;4.72;;
18568;SDS011;14780;48.316;-1.050;2024-01-10T06:08:37;6.03;;;4.70;;
18568;SDS011;14780;48.316;-1.050;2024-01-10T06:11:21;6.53;;;4.43;;
18568;SDS011;14780;48.316;-1.050;2024-01-10T06:14:07;5.97;;;4.50;;
18568;SDS011;14780;48.316;-1.050;2024-01-10T06:16:52;6.97;;;5.10;;
18568;SDS011;14780;48.316;-1.050;2024-01-10T06:19:36;7.22;;;4.78;;
18568;SDS011;14780;48.316;-1.050;2024-01-10T06:22:21;6.72;;;4.72;;
18568;SDS011;14780;48.316;-1.050;2024-01-10T06:25:08;6.30;;;4.72;;
18568;SDS011;14780;48.316;-1.050;2024-01-10T06:27:53;6.47;;;4.72;;
18568;SDS011;14780;48.316;-1.050;2024-01-10T06:30:38;6.50;;;4.50;;
18568;SDS011;14780;48.316;-1.050;2024-01-10T06:33:22;6.57;;;4.78;;
18568;SDS011;14780;48.316;-1.050;2024-01-10T06:36:07;6.28;;;4.70;;
18568;SDS011;14780;48.316;-1.050;2024-01-10T06:38:52;6.15;;;4.43;;
18568;SDS011;14780;48.316;-1.050;2024-01-10T06:41:37;6.15;;;4.45;;
18568;SDS011;14780;48.316;-1.050;2024-01-10T06:44:22;6.93;;;4.57;;
18568;SDS011;14780;48.316;-1.050;2024-01-10T06:47:07;6.43;;;5.00;;
18568;SDS011;14780;48.316;-1.050;2024-01-10T06:49:53;6.93;;;4.80;;
18568;SDS011;14780;48.316;-1.050;2024-01-10T06:52:38;6.05;;;4.85;;
18568;SDS011;14780;48.316;-1.050;2024-01-10T06:55:23;6.47;;;4.72;;
18568;SDS011;14780;48.316;-1.050;2024-01-10T06:58:08;6.18;;;4.60;;
18568;SDS011;14780;48.316;-1.050;2024-01-10T07:00:53;6.50;;;4.80;;
18568;SDS011;14780;48.316;-1.050;2024-01-10T07:03:37;6.85;;;4.82;;
18568;SDS011;14780;48.316;-1.050;2024-01-10T07:06:25;7.03;;;4.80;;
18568;SDS011;14780;48.316;-1.050;2024-01-10T07:09:09;8.97;;;4.70;;
18568;SDS011;14780;48.316;-1.050;2024-01-10T07:11:54;6.38;;;4.75;;
18568;SDS011;14780;48.316;-1.050;2024-01-10T07:14:39;6.55;;;4.97;;
18568;SDS011;14780;48.316;-1.050;2024-01-10T07:17:24;6.93;;;4.80;;
18568;SDS011;14780;48.316;-1.050;2024-01-10T07:20:09;8.02;;;4.75;;
18568;SDS011;14780;48.316;-1.050;2024-01-10T07:22:55;7.03;;;5.20;;
18568;SDS011;14780;48.316;-1.050;2024-01-10T07:25:39;6.70;;;4.53;;
18568;SDS011;14780;48.316;-1.050;2024-01-10T07:28:25;7.97;;;4.93;;
18568;SDS011;14780;48.316;-1.050;2024-01-10T07:31:11;6.70;;;5.03;;
18568;SDS011;14780;48.316;-1.050;2024-01-10T07:33:56;7.90;;;5.05;;
18568;SDS011;14780;48.316;-1.050;2024-01-10T07:36:41;7.68;;;5.05;;
18568;SDS011;14780;48.316;-1.050;2024-01-10T07:39:26;8.35;;;5.25;;
18568;SDS011;14780;48.316;-1.050;2024-01-10T07:42:12;8.35;;;5.20;;
18568;SDS011;14780;48.316;-1.050;2024-01-10T07:44:57;10.98;;;5.43;;
18568;SDS011;14780;48.316;-1.050;2024-01-10T07:47:42;8.82;;;5.40;;
18568;SDS011;14780;48.316;-1.050;2024-01-10T07:50:26;8.55;;;5.75;;
18568;SDS011;14780;48.316;-1.050;2024-01-10T07:53:11;9.95;;;5.50;;
18568;SDS011;14780;48.316;-1.050;2024-01-10T07:55:57;8.95;;;5.72;;
18568;SDS011;14780;48.316;-1.050;2024-01-10T07:58:41;9.73;;;5.68;;
18568;SDS011;14780;48.316;-1.050;2024-01-10T08:01:26;8.45;;;5.30;;
18568;SDS011;14780;48.316;-1.050;2024-01-10T08:04:10;8.93;;;6.00;;
18568;SDS011;14780;48.316;-1.050;2024-01-10T08:06:55;10.75;;;6.00;;
18568;SDS011;14780;48.316;-1.050;2024-01-10T08:09:40;9.30;;;6.07;;
18568;SDS011;14780;48.316;-1.050;2024-01-10T08:12:25;9.73;;;5.95;;
18568;SDS011;14780;48.316;-1.050;2024-01-10T08:15:10;8.60;;;5.75;;
18568;SDS011;14780;48.316;-1.050;2024-01-10T08:17:54;8.90;;;5.53;;
18568;SDS011;14780;48.316;-1.050;2024-01-10T08:20:39;8.05;;;5.50;;
18568;SDS011;14780;48.316;-1.050;2024-01-10T08:23:24;8.85;;;5.70;;
18568;SDS011;14780;48.316;-1.050;2024-01-10T08:26:08;11.30;;;6.20;;
18568;SDS011;14780;48.316;-1.050;2024-01-10T08:28:53;9.37;;;6.00;;
18568;SDS011;14780;48.316;-1.050;2024-01-10T08:31:38;9.90;;;5.60;;
18568;SDS011;14780;48.316;-1.050;2024-01-10T08:34:23;9.52;;;6.22;;
18568;SDS011;14780;48.316;-1.050;2024-01-10T08:37:08;9.20;;;5.50;;
18568;SDS011;14780;48.316;-1.050;2024-01-10T08:39:53;8.80;;;5.45;;
18568;SDS011;14780;48.316;-1.050;2024-01-10T08:42:38;7.00;;;5.55;;
18568;SDS011;14780;48.316;-1.050;2024-01-10T08:45:23;10.45;;;5.65;;
18568;SDS011;14780;48.316;-1.050;2024-01-10T08:48:08;9.13;;;5.45;;
18568;SDS011;14780;48.316;-1.050;2024-01-10T08:50:55;8.18;;;5.65;;
18568;SDS011;14780;48.316;-1.050;2024-01-10T08:53:40;9.35;;;5.60;;
18568;SDS011;14780;48.316;-1.050;2024-01-10T08:56:24;9.65;;;5.43;;
18568;SDS011;14780;48.316;-1.050;2024-01-10T08:59:10;8.63;;;5.70;;
18568;SDS011;14780;48.316;-1.050;2024-01-10T09:01:56;7.47;;;5.50;;
18568;SDS011;14780;48.316;-1.050;2024-01-10T09:04:40;7.87;;;5.43;;
18568;SDS011;14780;48.316;-1.050;2024-01-10T09:07:25;8.70;;;5.63;;
18568;SDS011;14780;48.316;-1.050;2024-01-10T09:10:11;9.57;;;5.55;;
18568;SDS011;14780;48.316;-1.050;2024-01-10T09:12:55;7.67;;;5.47;;
18568;SDS011;14780;48.316;-1.050;2024-01-10T09:15:41;8.73;;;5.50;;
18568;SDS011;14780;48.316;-1.050;2024-01-10T09:18:26;11.63;;;5.70;;
18568;SDS011;14780;48.316;-1.050;2024-01-10T09:21:11;7.05;;;5.10;;
18568;SDS011;14780;48.316;-1.050;2024-01-10T09:23:56;8.80;;;5.50;;
18568;SDS011;14780;48.316;-1.050;2024-01-10T09:26:40;8.05;;;5.68;;
18568;SDS011;14780;48.316;-1.050;2024-01-10T09:29:27;7.80;;;5.60;;
18568;SDS011;14780;48.316;-1.050;2024-01-10T09:32:11;7.25;;;5.20;;
18568;SDS011;14780;48.316;-1.050;2024-01-10T09:34:56;9.07;;;5.50;;
18568;SDS011;14780;48.316;-1.050;2024-01-10T09:37:41;7.20;;;5.40;;
18568;SDS011;14780;48.316;-1.050;2024-01-10T09:40:26;8.20;;;5.18;;
18568;SDS011;14780;48.316;-1.050;2024-01-10T09:43:12;8.23;;;5.47;;
18568;SDS011;14780;48.316;-1.050;2024-01-10T09:45:57;8.88;;;5.55;;
18568;SDS011;14780;48.316;-1.050;2024-01-10T09:48:46;7.60;;;5.35;;
18568;SDS011;14780;48.316;-1.050;2024-01-10T09:51:30;7.97;;;5.93;;
18568;SDS011;14780;48.316;-1.050;2024-01-10T09:54:17;8.45;;;5.47;;
18568;SDS011;14780;48.316;-1.050;2024-01-10T09:57:04;9.00;;;5.97;;
18568;SDS011;14780;48.316;-1.050;2024-01-10T09:59:49;8.45;;;5.85;;
18568;SDS011;14780;48.316;-1.050;2024-01-10T10:02:35;7.60;;;5.55;;
18568;SDS011;14780;48.316;-1.050;2024-01-10T10:05:21;7.63;;;5.25;;
18568;SDS011;14780;48.316;-1.050;2024-01-10T10:08:07;7.63;;;5.20;;
18568;SDS011;14780;48.316;-1.050;2024-01-10T10:10:54;8.40;;;5.38;;
18568;SDS011;14780;48.316;-1.050;2024-01-10T10:13:38;7.28;;;5.25;;
18568;SDS011;14780;48.316;-1.050;2024-01-10T10:16:25;7.13;;;5.55;;
18568;SDS011;14780;48.316;-1.050;2024-01-10T10:19:10;7.10;;;5.32;;
18568;SDS011;14780;48.316;-1.050;2024-01-10T10:22:02;7.95;;;5.70;;
18568;SDS011;14780;48.316;-1.050;2024-01-10T10:24:53;7.38;;;5.45;;
18568;SDS011;14780;48.316;-1.050;2024-01-10T10:27:38;8.13;;;5.25;;
18568;SDS011;14780;48.316;-1.050;2024-01-10T10:30:23;7.55;;;5.40;;
18568;SDS011;14780;48.316;-1.050;2024-01-10T10:33:07;8.57;;;5.55;;
18568;SDS011;14780;48.316;-1.050;2024-01-10T10:35:55;7.10;;;5.68;;
18568;SDS011;14780;48.316;-1.050;2024-01-10T10:38:39;8.88;;;5.93;;
18568;SDS011;14780;48.316;-1.050;2024-01-10T10:41:24;7.87;;;5.70;;
18568;SDS011;14780;48.316;-1.050;2024-01-10T10:44:11;8.05;;;5.85;;
18568;SDS011;14780;48.316;-1.050;2024-01-10T10:47:04;7.65;;;5.40;;
18568;SDS011;14780;48.316;-1.050;2024-01-10T10:49:53;7.18;;;5.40;;
18568;SDS011;14780;48.316;-1.050;2024-01-10T10:52:38;8.77;;;5.88;;
18568;SDS011;14780;48.316;-1.050;2024-01-10T10:55:30;7.93;;;5.90;;
18568;SDS011;14780;48.316;-1.050;2024-01-10T10:58:17;7.67;;;5.70;;
18568;SDS011;14780;48.316;-1.050;2024-01-10T11:01:05;8.10;;;6.07;;
18568;SDS011;14780;48.316;-1.050;2024-01-10T11:03:51;8.10;;;6.20;;
18568;SDS011;14780;48.316;-1.050;2024-01-10T11:06:37;6.75;;;5.45;;
18568;SDS011;14780;48.316;-1.050;2024-01-10T11:09:22;7.47;;;5.57;;
18568;SDS011;14780;48.316;-1.050;2024-01-10T11:15:06;10.20;;;7.03;;
18568;SDS011;14780;48.316;-1.050;2024-01-10T11:18:17;9.40;;;7.38;;
18568;SDS011;14780;48.316;-1.050;2024-01-10T11:24:13;11.88;;;7.75;;
18568;SDS011;14780;48.316;-1.050;2024-01-10T11:27:11;9.97;;;7.40;;
18568;SDS011;14780;48.316;-1.050;2024-01-10T11:29:58;9.77;;;7.25;;
18568;SDS011;14780;48.316;-1.050;2024-01-10T11:32:43;9.32;;;7.30;;
18568;SDS011;14780;48.316;-1.050;2024-01-10T11:35:28;9.65;;;7.47;;
18568;SDS011;14780;48.316;-1.050;2024-01-10T11:38:16;12.17;;;7.63;;
18568;SDS011;14780;48.316;-1.050;2024-01-10T11:41:00;10.70;;;7.07;;
18568;SDS011;14780;48.316;-1.050;2024-01-10T11:43:45;9.83;;;7.50;;
18568;SDS011;14780;48.316;-1.050;2024-01-10T11:46:30;10.75;;;7.53;;
18568;SDS011;14780;48.316;-1.050;2024-01-10T11:49:16;10.30;;;7.22;;
18568;SDS011;14780;48.316;-1.050;2024-01-10T11:52:02;9.57;;;7.30;;
18568;SDS011;14780;48.316;-1.050;2024-01-10T11:54:47;10.02;;;7.07;;
18568;SDS011;14780;48.316;-1.050;2024-01-10T11:57:31;9.33;;;7.13;;
18568;SDS011;14780;48.316;-1.050;2024-01-10T12:00:16;9.60;;;7.35;;
18568;SDS011;14780;48.316;-1.050;2024-01-10T12:03:03;9.98;;;6.72;;
18568;SDS011;14780;48.316;-1.050;2024-01-10T12:05:47;9.13;;;7.00;;
18568;SDS011;14780;48.316;-1.050;2024-01-10T12:08:33;8.85;;;6.63;;
18568;SDS011;14780;48.316;-1.050;2024-01-10T12:11:18;8.98;;;6.97;;
18568;SDS011;14780;48.316;-1.050;2024-01-10T12:14:03;10.43;;;7.07;;
18568;SDS011;14780;48.316;-1.050;2024-01-10T12:16:48;9.75;;;6.50;;
18568;SDS011;14780;48.316;-1.050;2024-01-10T12:19:36;9.15;;;6.88;;
18568;SDS011;14780;48.316;-1.050;2024-01-10T12:22:22;11.20;;;8.00;;
18568;SDS011;14780;48.316;-1.050;2024-01-10T12:25:06;18.10;;;9.88;;
18568;SDS011;14780;48.316;-1.050;2024-01-10T12:27:51;13.90;;;9.45;;
18568;SDS011;14780;48.316;-1.050;2024-01-10T12:30:36;15.38;;;11.02;;
18568;SDS011;14780;48.316;-1.050;2024-01-10T12:33:24;15.18;;;10.43;;
18568;SDS011;14780;48.316;-1.050;2024-01-10T12:36:09;13.63;;;9.88;;
18568;SDS011;14780;48.316;-1.050;2024-01-10T12:38:55;15.03;;;10.30;;
18568;SDS011;14780;48.316;-1.050;2024-01-10T12:41:40;14.15;;;10.20;;
18568;SDS011;14780;48.316;-1.050;2024-01-10T12:44:32;12.77;;;9.87;;
18568;SDS011;14780;48.316;-1.050;2024-01-10T12:47:18;13.70;;;9.70;;
18568;SDS011;14780;48.316;-1.050;2024-01-10T12:50:03;13.13;;;9.98;;
18568;SDS011;14780;48.316;-1.050;2024-01-10T12:52:51;12.87;;;9.20;;
18568;SDS011;14780;48.316;-1.050;2024-01-10T12:55:35;12.57;;;9.18;;
18568;SDS011;14780;48.316;-1.050;2024-01-10T12:58:20;11.98;;;8.70;;
18568;SDS011;14780;48.316;-1.050;2024-01-10T13:01:05;12.02;;;9.13;;
18568;SDS011;14780;48.316;-1.050;2024-01-10T13:03:51;11.88;;;8.18;;
18568;SDS011;14780;48.316;-1.050;2024-01-10T13:06:36;10.75;;;8.40;;
18568;SDS011;14780;48.316;-1.050;2024-01-10T13:09:21;13.20;;;8.43;;
18568;SDS011;14780;48.316;-1.050;2024-01-10T13:12:06;11.88;;;8.52;;
18568;SDS011;14780;48.316;-1.050;2024-01-10T13:14:51;11.00;;;7.60;;
18568;SDS011;14780;48.316;-1.050;2024-01-10T13:17:37;10.55;;;7.78;;
18568;SDS011;14780;48.316;-1.050;2024-01-10T13:20:21;10.98;;;7.55;;
18568;SDS011;14780;48.316;-1.050;2024-01-10T13:23:08;9.52;;;6.95;;
18568;SDS011;14780;48.316;-1.050;2024-01-10T13:25:53;11.20;;;7.95;;
18568;SDS011;14780;48.316;-1.050;2024-01-10T13:28:37;11.38;;;6.93;;
18568;SDS011;14780;48.316;-1.050;2024-01-10T13:31:22;9.68;;;7.50;;
18568;SDS011;14780;48.316;-1.050;2024-01-10T13:34:08;10.90;;;7.47;;
18568;SDS011;14780;48.316;-1.050;2024-01-10T13:36:54;10.43;;;7.18;;
18568;SDS011;14780;48.316;-1.050;2024-01-10T13:39:40;9.35;;;6.50;;
18568;SDS011;14780;48.316;-1.050;2024-01-10T13:42:25;8.40;;;6.68;;
18568;SDS011;14780;48.316;-1.050;2024-01-10T13:45:10;10.30;;;6.50;;
18568;SDS011;14780;48.316;-1.050;2024-01-10T13:47:55;8.68;;;6.45;;
18568;SDS011;14780;48.316;-1.050;2024-01-10T13:50:41;11.10;;;6.95;;
18568;SDS011;14780;48.316;-1.050;2024-01-10T13:53:25;7.75;;;6.20;;
18568;SDS011;14780;48.316;-1.050;2024-01-10T13:56:10;8.75;;;6.78;;
18568;SDS011;14780;48.316;-1.050;2024-01-10T13:58:55;8.10;;;6.25;;
18568;SDS011;14780;48.316;-1.050;2024-01-10T14:01:41;10.48;;;6.20;;
18568;SDS011;14780;48.316;-1.050;2024-01-10T14:04:26;8.02;;;5.97;;
18568;SDS011;14780;48.316;-1.050;2024-01-10T14:07:10;7.38;;;5.72;;
18568;SDS011;14780;48.316;-1.050;2024-01-10T14:09:55;8.48;;;6.55;;
18568;SDS011;14780;48.316;-1.050;2024-01-10T14:12:40;7.45;;;5.80;;
18568;SDS011;14780;48.316;-1.050;2024-01-10T14:15:24;7.80;;;6.28;;
18568;SDS011;14780;48.316;-1.050;2024-01-10T14:18:09;9.30;;;6.30;;
18568;SDS011;14780;48.316;-1.050;2024-01-10T14:20:53;7.88;;;6.00;;
18568;SDS011;14780;48.316;-1.050;2024-01-10T14:23:38;9.25;;;6.10;;
18568;SDS011;14780;48.316;-1.050;2024-01-10T14:26:23;9.07;;;5.90;;
18568;SDS011;14780;48.316;-1.050;2024-01-10T14:29:10;7.25;;;5.60;;
18568;SDS011;14780;48.316;-1.050;2024-01-10T14:31:54;7.87;;;6.00;;
18568;SDS011;14780;48.316;-1.050;2024-01-10T14:34:39;8.43;;;6.30;;
18568;SDS011;14780;48.316;-1.050;2024-01-10T14:37:24;9.90;;;6.20;;
18568;SDS011;14780;48.316;-1.050;2024-01-10T14:40:09;8.32;;;5.85;;
18568;SDS011;14780;48.316;-1.050;2024-01-10T14:42:55;8.77;;;5.95;;
18568;SDS011;14780;48.316;-1.050;2024-01-10T14:45:39;9.38;;;5.70;;
18568;SDS011;14780;48.316;-1.050;2024-01-10T14:48:24;9.38;;;6.05;;
18568;SDS011;14780;48.316;-1.050;2024-01-10T14:51:08;7.75;;;5.82;;
18568;SDS011;14780;48.316;-1.050;2024-01-10T14:53:53;7.63;;;6.00;;
18568;SDS011;14780;48.316;-1.050;2024-01-10T14:56:37;8.73;;;6.10;;
18568;SDS011;14780;48.316;-1.050;2024-01-10T14:59:26;7.97;;;6.13;;
18568;SDS011;14780;48.316;-1.050;2024-01-10T15:02:11;7.40;;;5.60;;
18568;SDS011;14780;48.316;-1.050;2024-01-10T15:04:55;8.68;;;5.93;;
18568;SDS011;14780;48.316;-1.050;2024-01-10T15:07:40;7.73;;;6.10;;
18568;SDS011;14780;48.316;-1.050;2024-01-10T15:10:25;8.90;;;6.13;;
18568;SDS011;14780;48.316;-1.050;2024-01-10T15:13:10;8.68;;;6.05;;
18568;SDS011;14780;48.316;-1.050;2024-01-10T15:15:55;9.65;;;5.90;;
18568;SDS011;14780;48.316;-1.050;2024-01-10T15:18:40;8.70;;;6.00;;
18568;SDS011;14780;48.316;-1.050;2024-01-10T15:21:24;9.77;;;6.50;;
18568;SDS011;14780;48.316;-1.050;2024-01-10T15:24:09;8.90;;;6.10;;
18568;SDS011;14780;48.316;-1.050;2024-01-10T15:26:54;8.43;;;6.32;;
18568;SDS011;14780;48.316;-1.050;2024-01-10T15:29:44;8.10;;;6.15;;
18568;SDS011;14780;48.316;-1.050;2024-01-10T15:32:29;9.10;;;6.18;;
18568;SDS011;14780;48.316;-1.050;2024-01-10T15:35:14;8.38;;;6.00;;
18568;SDS011;14780;48.316;-1.050;2024-01-10T15:37:59;10.13;;;6.53;;
18568;SDS011;14780;48.316;-1.050;2024-01-10T15:40:44;9.75;;;6.28;;
18568;SDS011;14780;48.316;-1.050;2024-01-10T15:43:29;9.45;;;6.30;;
18568;SDS011;14780;48.316;-1.050;2024-01-10T15:46:17;9.02;;;6.40;;
18568;SDS011;14780;48.316;-1.050;2024-01-10T15:49:04;8.93;;;6.60;;
18568;SDS011;14780;48.316;-1.050;2024-01-10T15:51:48;9.90;;;6.70;;
18568;SDS011;14780;48.316;-1.050;2024-01-10T15:54:34;9.68;;;5.90;;
18568;SDS011;14780;48.316;-1.050;2024-01-10T15:57:24;8.57;;;6.43;;
18568;SDS011;14780;48.316;-1.050;2024-01-10T16:00:09;9.35;;;6.50;;
18568;SDS011;14780;48.316;-1.050;2024-01-10T16:02:55;8.77;;;6.32;;
18568;SDS011;14780;48.316;-1.050;2024-01-10T16:05:39;10.43;;;6.32;;
18568;SDS011;14780;48.316;-1.050;2024-01-10T16:08:24;9.18;;;6.57;;
18568;SDS011;14780;48.316;-1.050;2024-01-10T16:11:09;9.73;;;6.82;;
18568;SDS011;14780;48.316;-1.050;2024-01-10T16:13:54;9.13;;;6.40;;
18568;SDS011;14780;48.316;-1.050;2024-01-10T16:16:40;7.78;;;6.15;;
18568;SDS011;14780;48.316;-1.050;2024-01-10T16:19:25;8.50;;;6.63;;
18568;SDS011;14780;48.316;-1.050;2024-01-10T16:22:11;9.17;;;6.60;;
18568;SDS011;14780;48.316;-1.050;2024-01-10T16:24:56;8.73;;;6.70;;